Time;durP1;ratioP1;P1;durP2;ratioP2;P2;SDS_P1;SDS_P2;PMS_P1;PMS_P2;Temp;Humidity;BMP_temperature;BMP_pressure;BME280_temperature;BME280_humidity;BME280_pressure;Samples;Min_cycle;Max_cycle;Signal;HPM_P1;HPM_P2
2022/09/07 00:00:15;;;;;;;7.43;3.08;;;;;;;;;;6357656;27;20044;-68
2022/09/07 00:03:17;;;;;;;5.72;3.35;;;;;;;;;;6357260;27;20047;-68
2022/09/07 00:06:20;;;;;;;5.95;3.30;;;;;;;;;;6361378;27;20108;-67
2022/09/07 00:09:22;;;;;;;;;;;;;;;;;;6361338;27;20043;-69
2022/09/07 00:12:24;;;;;;;5.43;3.15;;;;;;;;;;6358684;27;19916;-68
2022/09/07 00:15:25;;;;;;;6.10;3.15;;;;;;;;;;6346358;27;20051;-68
2022/09/07 00:18:27;;;;;;;4.57;2.45;;;;;;;;;;6353091;27;20047;-68
2022/09/07 00:21:31;;;;;;;5.55;2.92;;;;;;;;;;6353281;27;20110;-69
2022/09/07 00:24:32;;;;;;;4.78;2.97;;;;;;;;;;6358840;27;20254;-68
2022/09/07 00:27:34;;;;;;;5.50;3.00;;;;;;;;;;6359900;27;20039;-69
2022/09/07 00:30:40;;;;;;;6.55;3.30;;;;;;;;;;6355336;27;20334;-69
2022/09/07 00:33:42;;;;;;;6.45;4.47;;;;;;;;;;6357135;27;20099;-70
2022/09/07 00:36:45;;;;;;;5.88;3.45;;;;;;;;;;6355347;27;20334;-67
2022/09/07 00:39:48;;;;;;;5.55;2.97;;;;;;;;;;6358654;27;20059;-68
2022/09/07 00:42:49;;;;;;;4.90;2.92;;;;;;;;;;6357326;27;20043;-68
2022/09/07 00:45:51;;;;;;;6.68;3.78;;;;;;;;;;6358155;27;20048;-69
2022/09/07 00:48:57;;;;;;;5.57;3.03;;;;;;;;;;6354398;27;20063;-68
2022/09/07 00:52:03;;;;;;;12.07;4.53;;;;;;;;;;6354266;27;20059;-70
2022/09/07 00:55:08;;;;;;;7.57;4.22;;;;;;;;;;6354086;27;20047;-68
2022/09/07 00:58:11;;;;;;;8.25;4.28;;;;;;;;;;6356100;27;20057;-68
2022/09/07 01:01:13;;;;;;;5.72;3.33;;;;;;;;;;6353573;27;20055;-68
2022/09/07 01:04:15;;;;;;;5.82;3.30;;;;;;;;;;6352179;27;20043;-68
2022/09/07 01:07:19;;;;;;;5.00;3.08;;;;;;;;;;6352174;27;20066;-68
2022/09/07 01:10:23;;;;;;;7.60;3.53;;;;;;;;;;6355644;27;20071;-68
2022/09/07 01:13:24;;;;;;;6.82;3.53;;;;;;;;;;6357771;27;20349;-67
2022/09/07 01:16:37;;;;;;;7.68;4.15;;;;;;;;;;6355900;27;20085;-67
2022/09/07 01:20:11;;;;;;;6.25;3.95;;;;;;;;;;6355997;27;20680;-68
2022/09/07 01:23:52;;;;;;;8.40;4.60;;;;;;;;;;6350758;27;20841;-67
2022/09/07 01:27:36;;;;;;;6.90;3.83;;;;;;;;;;6356206;27;20359;-69
2022/09/07 01:30:39;;;;;;;7.07;4.47;;;;;;;;;;6348185;27;20104;-67
2022/09/07 01:33:48;;;;;;;6.30;4.70;;;;;;;;;;6352649;27;20047;-70
2022/09/07 01:36:54;;;;;;;9.75;3.95;;;;;;;;;;6351578;27;20044;-68
2022/09/07 01:40:02;;;;;;;5.40;4.55;;;;;;;;;;6357802;27;20062;-67
2022/09/07 01:43:10;;;;;;;8.30;4.40;;;;;;;;;;6354611;27;20062;-68
2022/09/07 01:46:16;;;;;;;8.20;4.55;;;;;;;;;;6354724;27;20051;-67
2022/09/07 01:49:21;;;;;;;9.43;4.80;;;;;;;;;;6351984;27;20047;-69
2022/09/07 01:52:29;;;;;;;6.25;4.93;;;;;;;;;;6351908;27;20331;-67
2022/09/07 01:55:33;;;;;;;6.78;4.22;;;;;;;;;;6350931;27;20047;-67
2022/09/07 01:58:39;;;;;;;6.55;4.65;;;;;;;;;;6353653;27;20073;-69
2022/09/07 02:01:43;;;;;;;8.30;5.28;;;;;;;;;;6352193;27;20047;-67
2022/09/07 02:04:48;;;;;;;8.52;5.30;;;;;;;;;;6353790;28;20060;-67
2022/09/07 02:07:52;;;;;;;10.38;5.18;;;;;;;;;;6352400;28;20050;-67
2022/09/07 02:10:55;;;;;;;8.05;5.40;;;;;;;;;;6350124;27;20273;-68
2022/09/07 02:13:59;;;;;;;;;;;;;;;;;;6349206;28;20052;-67
2022/09/07 02:17:04;;;;;;;9.18;5.85;;;;;;;;;;6360924;28;19984;-67
2022/09/07 02:20:10;;;;;;;8.13;6.35;;;;;;;;;;6361420;28;20059;-67
2022/09/07 02:23:18;;;;;;;8.57;6.57;;;;;;;;;;6359941;27;20079;-69
2022/09/07 02:26:22;;;;;;;10.07;6.95;;;;;;;;;;6353557;28;20074;-67
2022/09/07 02:29:25;;;;;;;9.82;6.70;;;;;;;;;;6356737;27;20330;-67
2022/09/07 02:32:27;;;;;;;9.70;7.32;;;;;;;;;;6356851;27;20044;-67
2022/09/07 02:35:28;;;;;;;11.60;7.25;;;;;;;;;;6353488;27;20346;-67
2022/09/07 02:38:30;;;;;;;9.27;6.80;;;;;;;;;;6359138;27;20043;-68
2022/09/07 02:41:34;;;;;;;9.95;7.10;;;;;;;;;;6354100;27;20105;-67
2022/09/07 02:44:39;;;;;;;7.82;6.43;;;;;;;;;;6358901;27;20138;-68
2022/09/07 02:47:52;;;;;;;6.05;5.25;;;;;;;;;;6358332;27;20043;-67
2022/09/07 02:51:02;;;;;;;8.00;5.35;;;;;;;;;;6361226;27;20051;-68
2022/09/07 02:54:24;;;;;;;5.28;4.40;;;;;;;;;;6358189;27;20047;-67
2022/09/07 02:57:33;;;;;;;4.95;4.40;;;;;;;;;;6355494;27;20047;-68
2022/09/07 03:00:41;;;;;;;8.40;4.38;;;;;;;;;;6357310;27;20059;-67
2022/09/07 03:03:50;;;;;;;5.43;3.88;;;;;;;;;;6355618;27;20038;-67
2022/09/07 03:06:54;;;;;;;8.00;4.15;;;;;;;;;;6343761;27;20145;-69
2022/09/07 03:09:57;;;;;;;9.60;4.90;;;;;;;;;;6359258;27;20109;-67
2022/09/07 03:12:59;;;;;;;7.30;4.95;;;;;;;;;;6355841;27;20043;-68
2022/09/07 03:16:02;;;;;;;7.90;4.60;;;;;;;;;;6357255;27;20127;-67
2022/09/07 03:19:04;;;;;;;7.22;5.00;;;;;;;;;;6355010;27;20073;-67
2022/09/07 03:22:06;;;;;;;8.70;5.18;;;;;;;;;;6354340;27;20109;-67
2022/09/07 03:25:08;;;;;;;6.82;5.43;;;;;;;;;;6357053;27;20063;-67
2022/09/07 03:28:10;;;;;;;11.45;6.22;;;;;;;;;;6357825;27;20112;-68
2022/09/07 03:31:13;;;;;;;7.95;5.40;;;;;;;;;;6342412;27;20063;-67
2022/09/07 03:34:15;;;;;;;;;;;;;;;;;;6360854;27;20108;-67
2022/09/07 03:37:17;;;;;;;9.57;5.90;;;;;;;;;;6355713;27;20107;-67
2022/09/07 03:40:19;;;;;;;8.30;5.70;;;;;;;;;;6347405;27;20054;-70
2022/09/07 03:43:21;;;;;;;7.72;5.50;;;;;;;;;;6349071;27;20044;-67
2022/09/07 03:46:24;;;;;;;8.20;6.65;;;;;;;;;;6353779;27;20058;-67
2022/09/07 03:49:26;;;;;;;7.22;5.35;;;;;;;;;;6346802;27;20058;-67
2022/09/07 03:52:27;;;;;;;14.23;7.30;;;;;;;;;;6356890;27;20242;-66
2022/09/07 03:55:29;;;;;;;13.77;7.18;;;;;;;;;;6353836;27;20062;-66
2022/09/07 03:58:32;;;;;;;8.60;6.75;;;;;;;;;;6353637;27;20055;-67
2022/09/07 04:01:35;;;;;;;10.27;7.35;;;;;;;;;;6352129;27;20051;-67
2022/09/07 04:04:36;;;;;;;7.25;6.40;;;;;;;;;;6354778;27;20101;-68
2022/09/07 04:07:38;;;;;;;11.45;6.90;;;;;;;;;;6353394;27;20284;-67
2022/09/07 04:10:41;;;;;;;10.10;7.57;;;;;;;;;;6354924;27;20116;-68
2022/09/07 04:13:43;;;;;;;11.60;7.90;;;;;;;;;;6354795;27;20078;-67
2022/09/07 04:16:46;;;;;;;9.13;6.97;;;;;;;;;;6355098;27;20108;-68
2022/09/07 04:19:47;;;;;;;;;;;;;;;;;;6353199;27;20052;-67
2022/09/07 04:22:49;;;;;;;8.98;6.57;;;;;;;;;;6356361;27;19916;-65
2022/09/07 04:25:52;;;;;;;9.45;5.82;;;;;;;;;;6353938;27;20047;-68
2022/09/07 04:28:54;;;;;;;12.52;6.43;;;;;;;;;;6351974;27;20264;-67
2022/09/07 04:31:57;;;;;;;10.07;5.97;;;;;;;;;;6351166;27;20437;-68
2022/09/07 04:34:58;;;;;;;5.65;5.10;;;;;;;;;;6354589;27;20247;-68
2022/09/07 04:38:00;;;;;;;11.55;6.28;;;;;;;;;;6355338;27;20043;-67
2022/09/07 04:41:05;;;;;;;9.93;6.05;;;;;;;;;;6353222;27;20047;-67
2022/09/07 04:44:07;;;;;;;8.75;6.32;;;;;;;;;;6357192;27;20062;-71
2022/09/07 04:47:10;;;;;;;13.07;6.65;;;;;;;;;;6357179;27;20039;-69
2022/09/07 04:50:11;;;;;;;10.95;6.82;;;;;;;;;;6352277;27;20047;-68
2022/09/07 04:53:13;;;;;;;12.13;6.15;;;;;;;;;;6350706;27;20093;-68
2022/09/07 04:56:15;;;;;;;9.73;6.15;;;;;;;;;;6352488;27;20099;-67
2022/09/07 04:59:17;;;;;;;10.98;6.47;;;;;;;;;;6352408;27;20044;-68
2022/09/07 05:02:20;;;;;;;9.05;6.65;;;;;;;;;;6354239;27;20051;-68
2022/09/07 05:05:21;;;;;;;12.25;8.20;;;;;;;;;;6350888;27;20092;-67
2022/09/07 05:08:23;;;;;;;9.18;6.97;;;;;;;;;;6355362;27;20101;-67
2022/09/07 05:11:25;;;;;;;12.80;7.10;;;;;;;;;;6360964;27;20054;-67
2022/09/07 05:14:27;;;;;;;11.13;6.32;;;;;;;;;;6355352;27;20047;-68
2022/09/07 05:17:30;;;;;;;7.80;6.10;;;;;;;;;;6352336;27;20265;-69
2022/09/07 05:20:32;;;;;;;7.78;5.82;;;;;;;;;;6352358;27;20075;-68
2022/09/07 05:23:34;;;;;;;7.70;5.30;;;;;;;;;;6352795;27;20093;-66
2022/09/07 05:26:38;;;;;;;6.97;5.30;;;;;;;;;;6349331;27;20085;-67
2022/09/07 05:29:40;;;;;;;6.95;5.05;;;;;;;;;;6347872;27;20058;-67
2022/09/07 05:32:46;;;;;;;9.20;5.68;;;;;;;;;;6351365;27;20117;-67
2022/09/07 05:35:56;;;;;;;8.63;5.05;;;;;;;;;;6352327;27;20035;-69
2022/09/07 05:38:59;;;;;;;6.65;4.90;;;;;;;;;;6350068;27;20135;-68
2022/09/07 05:42:00;;;;;;;6.65;4.93;;;;;;;;;;6351806;27;20326;-67
2022/09/07 05:45:02;;;;;;;8.32;5.65;;;;;;;;;;6352898;27;20054;-67
2022/09/07 05:48:05;;;;;;;7.35;5.53;;;;;;;;;;6355819;27;20055;-67
2022/09/07 05:51:08;;;;;;;6.93;5.75;;;;;;;;;;6351871;27;20051;-64
2022/09/07 05:54:10;;;;;;;131.53;13.20;;;;;;;;;;6355097;27;20065;-67
2022/09/07 05:57:12;;;;;;;8.48;6.43;;;;;;;;;;6347284;27;20047;-68
2022/09/07 06:00:14;;;;;;;10.02;6.47;;;;;;;;;;6349085;27;20055;-67
2022/09/07 06:03:17;;;;;;;10.25;6.80;;;;;;;;;;6353348;28;20388;-68
2022/09/07 06:06:19;;;;;;;9.73;6.72;;;;;;;;;;6351388;28;20270;-67
2022/09/07 06:09:21;;;;;;;11.65;7.30;;;;;;;;;;6349448;28;20073;-66
2022/09/07 06:12:22;;;;;;;8.77;6.60;;;;;;;;;;6350604;28;20101;-67
2022/09/07 06:15:24;;;;;;;11.80;7.70;;;;;;;;;;6349190;28;20054;-68
2022/09/07 06:18:30;;;;;;;10.27;7.20;;;;;;;;;;6352460;28;20382;-67
2022/09/07 06:21:34;;;;;;;9.52;6.95;;;;;;;;;;6346325;27;20122;-66
2022/09/07 06:24:36;;;;;;;11.07;7.35;;;;;;;;;;6356194;27;20058;-66
2022/09/07 06:27:38;;;;;;;9.77;7.65;;;;;;;;;;6348857;28;20052;-68
2022/09/07 06:30:39;;;;;;;15.68;8.10;;;;;;;;;;6350264;28;20291;-66
2022/09/07 06:33:43;;;;;;;11.93;7.68;;;;;;;;;;6347815;28;20220;-66
2022/09/07 06:36:45;;;;;;;11.40;8.05;;;;;;;;;;6350195;28;20059;-68
2022/09/07 06:39:48;;;;;;;10.00;7.90;;;;;;;;;;6354096;28;20204;-67
2022/09/07 06:42:49;;;;;;;15.13;9.23;;;;;;;;;;6355666;28;20070;-67
2022/09/07 06:45:53;;;;;;;9.80;7.75;;;;;;;;;;6353319;28;20052;-66
2022/09/07 06:48:56;;;;;;;14.48;9.02;;;;;;;;;;6351070;27;20092;-66
2022/09/07 06:51:58;;;;;;;12.07;8.35;;;;;;;;;;6350255;28;20979;-66
2022/09/07 06:54:59;;;;;;;14.65;7.65;;;;;;;;;;6349128;27;20073;-66
2022/09/07 06:58:01;;;;;;;8.48;7.68;;;;;;;;;;6350598;28;20062;-68
2022/09/07 07:01:06;;;;;;;12.75;8.73;;;;;;;;;;6350155;28;20214;-66
2022/09/07 07:04:09;;;;;;;10.85;8.65;;;;;;;;;;6352401;28;20075;-65
2022/09/07 07:07:11;;;;;;;12.23;9.73;;;;;;;;;;6354262;28;20051;-68
2022/09/07 07:10:13;;;;;;;13.70;10.23;;;;;;;;;;6352822;28;20120;-64
2022/09/07 07:13:15;;;;;;;11.52;8.02;;;;;;;;;;6350387;28;20055;-64
2022/09/07 07:16:18;;;;;;;11.07;8.23;;;;;;;;;;6358551;27;20052;-65
2022/09/07 07:19:21;;;;;;;12.60;7.85;;;;;;;;;;6356174;27;20334;-65
2022/09/07 07:22:23;;;;;;;13.25;8.15;;;;;;;;;;6355507;27;20051;-66
2022/09/07 07:25:25;;;;;;;11.97;9.23;;;;;;;;;;6355959;27;20425;-66
2022/09/07 07:28:27;;;;;;;11.57;9.00;;;;;;;;;;6356654;27;20055;-64
2022/09/07 07:31:28;;;;;;;13.70;8.77;;;;;;;;;;6356629;27;20046;-66
2022/09/07 07:34:31;;;;;;;21.23;9.07;;;;;;;;;;6359051;27;20055;-66
2022/09/07 07:37:33;;;;;;;15.18;8.57;;;;;;;;;;6355455;27;20267;-65
2022/09/07 07:40:35;;;;;;;10.68;9.60;;;;;;;;;;6356550;27;20055;-67
2022/09/07 07:43:37;;;;;;;11.27;10.07;;;;;;;;;;6359619;27;20138;-64
2022/09/07 07:46:39;;;;;;;14.00;9.57;;;;;;;;;;6360155;27;20342;-65
2022/09/07 07:49:42;;;;;;;12.00;9.63;;;;;;;;;;6355775;27;20103;-65
2022/09/07 07:52:43;;;;;;;10.98;8.55;;;;;;;;;;6356497;27;20062;-65
2022/09/07 07:55:45;;;;;;;14.10;9.50;;;;;;;;;;6353076;27;20047;-67
2022/09/07 07:58:48;;;;;;;12.55;9.18;;;;;;;;;;6348683;27;20056;-67
2022/09/07 08:01:49;;;;;;;11.52;8.75;;;;;;;;;;6324328;28;20044;-66
2022/09/07 08:04:52;;;;;;;13.40;9.23;;;;;;;;;;6324029;28;20109;-66
2022/09/07 08:07:54;;;;;;;;;;;;;;;;;;6322946;28;20044;-66
2022/09/07 08:10:55;;;;;;;12.10;8.80;;;;;;;;;;6325052;28;19969;-66
2022/09/07 08:13:59;;;;;;;10.73;8.85;;;;;;;;;;6321855;28;20263;-66
2022/09/07 08:17:00;;;;;;;11.50;9.20;;;;;;;;;;6320599;28;20048;-67
2022/09/07 08:20:04;;;;;;;13.18;10.23;;;;;;;;;;6316591;28;20040;-66
2022/09/07 08:23:06;;;;;;;12.65;9.25;;;;;;;;;;6316584;28;20040;-66
2022/09/07 08:26:08;;;;;;;13.73;10.53;;;;;;;;;;6324199;28;20277;-65
2022/09/07 08:29:10;;;;;;;14.32;11.63;;;;;;;;;;6315145;28;20271;-66
2022/09/07 08:32:12;;;;;;;15.05;12.27;;;;;;;;;;6322763;28;20052;-66
2022/09/07 08:35:15;;;;;;;16.00;12.90;;;;;;;;;;6322861;28;20117;-66
2022/09/07 08:38:16;;;;;;;;;;;;;;;;;;6316618;28;20208;-65
2022/09/07 08:41:40;;;;;;;17.25;12.85;;;;;;;;;;6322837;28;19920;-66
2022/09/07 08:44:46;;;;;;;16.60;13.30;;;;;;;;;;6307933;28;20126;-67
2022/09/07 08:47:49;;;;;;;19.88;15.25;;;;;;;;;;6326074;28;20048;-65
2022/09/07 08:50:55;;;;;;;14.63;12.98;;;;;;;;;;6323194;28;20601;-65
2022/09/07 08:53:56;;;;;;;20.23;14.85;;;;;;;;;;6320498;28;20051;-69
2022/09/07 08:57:02;;;;;;;20.48;16.27;;;;;;;;;;6320269;28;20102;-67
2022/09/07 09:00:07;;;;;;;20.30;16.98;;;;;;;;;;6346899;27;20100;-67
2022/09/07 09:03:14;;;;;;;20.15;15.38;;;;;;;;;;6356102;27;20100;-67
2022/09/07 09:06:22;;;;;;;18.45;15.98;;;;;;;;;;6356360;27;20044;-66
2022/09/07 09:09:30;;;;;;;19.48;15.70;;;;;;;;;;6352775;27;20110;-65
2022/09/07 09:12:40;;;;;;;18.27;15.35;;;;;;;;;;6355665;27;20060;-66
2022/09/07 09:15:51;;;;;;;20.33;15.98;;;;;;;;;;6356949;27;20047;-66
2022/09/07 09:19:05;;;;;;;18.67;16.70;;;;;;;;;;6356818;27;20336;-70
2022/09/07 09:22:13;;;;;;;20.85;17.17;;;;;;;;;;6363865;27;20057;-65
2022/09/07 09:25:19;;;;;;;24.80;18.77;;;;;;;;;;6362957;27;20050;-67
2022/09/07 09:28:21;;;;;;;24.23;19.48;;;;;;;;;;6362851;27;20051;-67
2022/09/07 09:31:25;;;;;;;23.00;19.43;;;;;;;;;;6356029;27;20936;-67
2022/09/07 09:34:27;;;;;;;21.20;18.67;;;;;;;;;;6354479;27;20280;-68
2022/09/07 09:37:38;;;;;;;25.23;20.08;;;;;;;;;;6353714;27;20051;-67
2022/09/07 09:40:39;;;;;;;20.70;18.50;;;;;;;;;;6356569;27;20054;-67
2022/09/07 09:43:44;;;;;;;20.70;18.60;;;;;;;;;;6357555;27;20052;-67
2022/09/07 09:46:48;;;;;;;17.70;14.73;;;;;;;;;;6353861;27;20053;-67
2022/09/07 09:49:52;;;;;;;19.13;16.08;;;;;;;;;;6353316;27;20047;-67
2022/09/07 09:52:55;;;;;;;17.23;14.85;;;;;;;;;;6352168;27;21703;-66
2022/09/07 09:55:57;;;;;;;17.52;14.95;;;;;;;;;;6350867;27;20062;-69
2022/09/07 09:59:11;;;;;;;17.88;14.75;;;;;;;;;;6352773;27;20226;-67
2022/09/07 10:02:26;;;;;;;14.65;12.82;;;;;;;;;;6353080;28;20048;-65
2022/09/07 10:05:29;;;;;;;16.55;13.20;;;;;;;;;;6355822;27;20279;-68
2022/09/07 10:08:33;;;;;;;16.48;12.10;;;;;;;;;;6352749;28;20112;-68
2022/09/07 10:11:45;;;;;;;15.90;13.57;;;;;;;;;;6338888;28;20078;-67
2022/09/07 10:14:47;;;;;;;16.53;11.83;;;;;;;;;;6361890;28;20361;-65
2022/09/07 10:17:50;;;;;;;14.20;12.68;;;;;;;;;;6358080;28;20051;-69
2022/09/07 10:20:52;;;;;;;19.33;14.48;;;;;;;;;;6361914;27;20059;-66
2022/09/07 10:23:58;;;;;;;17.58;13.48;;;;;;;;;;6358251;28;20047;-68
2022/09/07 10:27:00;;;;;;;18.85;14.10;;;;;;;;;;6359044;28;20350;-67
2022/09/07 10:30:04;;;;;;;14.35;12.75;;;;;;;;;;6357421;28;20040;-67
2022/09/07 10:33:09;;;;;;;17.50;14.23;;;;;;;;;;6356959;28;20073;-66
2022/09/07 10:36:14;;;;;;;15.73;13.98;;;;;;;;;;6359118;27;20059;-67
2022/09/07 10:39:20;;;;;;;18.73;15.48;;;;;;;;;;6355950;28;20264;-66
2022/09/07 10:42:25;;;;;;;18.13;14.40;;;;;;;;;;6358424;27;20428;-67
2022/09/07 10:45:35;;;;;;;16.60;15.00;;;;;;;;;;6358737;28;20061;-67
2022/09/07 10:48:42;;;;;;;22.50;16.15;;;;;;;;;;6355752;28;20261;-68
2022/09/07 10:51:56;;;;;;;18.52;14.18;;;;;;;;;;6367299;27;20050;-67
2022/09/07 10:55:05;;;;;;;14.65;12.70;;;;;;;;;;6358718;27;20252;-67
2022/09/07 10:58:15;;;;;;;15.50;14.05;;;;;;;;;;6359680;27;20059;-67
2022/09/07 11:01:21;;;;;;;15.45;13.88;;;;;;;;;;6365323;27;20047;-67
2022/09/07 11:04:36;;;;;;;14.88;12.60;;;;;;;;;;6365344;27;20058;-67
2022/09/07 11:07:56;;;;;;;19.08;13.23;;;;;;;;;;6361610;27;20383;-67
2022/09/07 11:11:06;;;;;;;16.25;14.25;;;;;;;;;;6364748;27;20039;-67
2022/09/07 11:14:11;;;;;;;18.60;16.00;;;;;;;;;;6362708;27;20052;-67
2022/09/07 11:17:15;;;;;;;17.48;14.88;;;;;;;;;;6359535;27;20060;-66
2022/09/07 11:20:22;;;;;;;15.93;14.35;;;;;;;;;;6360673;27;20058;-68
2022/09/07 11:23:28;;;;;;;16.85;13.48;;;;;;;;;;6359163;27;20057;-67
2022/09/07 11:26:37;;;;;;;15.52;13.93;;;;;;;;;;6358025;27;20119;-67
2022/09/07 11:29:44;;;;;;;19.83;13.80;;;;;;;;;;6360889;27;20327;-68
2022/09/07 11:32:53;;;;;;;16.25;12.93;;;;;;;;;;6362331;27;20059;-67
2022/09/07 11:36:00;;;;;;;19.45;13.82;;;;;;;;;;6363752;27;20058;-67
2022/09/07 11:39:06;;;;;;;17.33;14.15;;;;;;;;;;6355615;27;20111;-68
2022/09/07 11:42:15;;;;;;;18.20;14.95;;;;;;;;;;6358801;27;20056;-67
2022/09/07 11:45:23;;;;;;;21.00;18.58;;;;;;;;;;6361187;27;20052;-67
2022/09/07 11:48:27;;;;;;;25.45;20.20;;;;;;;;;;6363626;27;20055;-67
2022/09/07 11:51:38;;;;;;;20.73;18.42;;;;;;;;;;6360465;27;20059;-69
2022/09/07 11:54:44;;;;;;;18.52;16.48;;;;;;;;;;6359788;27;20294;-67
2022/09/07 11:57:58;;;;;;;19.63;16.45;;;;;;;;;;6359344;27;20294;-68
2022/09/07 12:01:10;;;;;;;18.50;16.58;;;;;;;;;;6358732;27;20067;-67
2022/09/07 12:04:30;;;;;;;18.38;16.40;;;;;;;;;;6360198;27;20044;-67
2022/09/07 12:07:55;;;;;;;18.92;16.45;;;;;;;;;;6358090;27;20296;-68
2022/09/07 12:11:09;;;;;;;18.35;16.17;;;;;;;;;;6359999;27;20047;-67
2022/09/07 12:14:27;;;;;;;20.88;16.42;;;;;;;;;;6363635;27;20055;-67
2022/09/07 12:17:40;;;;;;;23.17;18.90;;;;;;;;;;6360856;27;20043;-67
2022/09/07 12:20:43;;;;;;;20.50;16.08;;;;;;;;;;6366800;27;20058;-67
2022/09/07 12:23:47;;;;;;;19.88;15.93;;;;;;;;;;6362769;27;20043;-67
2022/09/07 12:26:50;;;;;;;21.13;16.95;;;;;;;;;;6360001;27;20115;-68
2022/09/07 12:30:31;;;;;;;18.80;16.73;;;;;;;;;;6366531;27;20055;-68
2022/09/07 12:33:35;;;;;;;20.67;17.27;;;;;;;;;;6361171;27;20104;-67
2022/09/07 12:36:41;;;;;;;20.45;16.42;;;;;;;;;;6343238;27;20047;-69
2022/09/07 12:39:44;;;;;;;28.88;22.92;;;;;;;;;;6350989;27;20123;-70
2022/09/07 12:42:45;;;;;;;52.70;42.05;;;;;;;;;;6350391;27;20110;-69
2022/09/07 12:45:51;;;;;;;30.67;26.80;;;;;;;;;;6359702;27;20052;-69
2022/09/07 12:48:57;;;;;;;21.75;18.58;;;;;;;;;;6350331;27;20088;-69
2022/09/07 12:52:05;;;;;;;20.63;16.58;;;;;;;;;;6358761;27;20045;-69
2022/09/07 12:55:16;;;;;;;17.90;14.40;;;;;;;;;;6359033;27;20308;-69
2022/09/07 12:58:27;;;;;;;22.50;16.60;;;;;;;;;;6356474;27;20051;-70
2022/09/07 13:01:39;;;;;;;25.58;20.05;;;;;;;;;;6353918;27;20063;-68
2022/09/07 13:04:50;;;;;;;25.77;18.00;;;;;;;;;;6355718;27;20043;-69
2022/09/07 13:08:20;;;;;;;19.30;17.20;;;;;;;;;;6356133;27;20238;-70
2022/09/07 13:11:32;;;;;;;21.73;18.02;;;;;;;;;;6356954;27;20056;-70
2022/09/07 13:14:37;;;;;;;18.00;15.85;;;;;;;;;;6358768;27;20063;-69
2022/09/07 13:17:43;;;;;;;19.38;16.58;;;;;;;;;;6357277;27;20348;-70
2022/09/07 13:20:47;;;;;;;22.70;17.70;;;;;;;;;;6359148;27;20334;-69
2022/09/07 13:24:36;;;;;;;19.13;15.77;;;;;;;;;;6355056;27;20051;-69
2022/09/07 13:27:51;;;;;;;20.92;17.52;;;;;;;;;;6347117;27;20043;-70
2022/09/07 13:31:02;;;;;;;17.35;14.57;;;;;;;;;;6347571;27;20381;-70
2022/09/07 13:37:49;;;;;;;20.40;17.88;;;;;;;;;;6357059;27;20902;-71
2022/09/07 13:40:52;;;;;;;19.15;14.05;;;;;;;;;;6318753;28;20087;-69
2022/09/07 13:43:59;;;;;;;16.67;14.75;;;;;;;;;;6316777;28;20048;-68
2022/09/07 13:47:10;;;;;;;15.10;13.38;;;;;;;;;;6319415;28;20569;-69
2022/09/07 13:50:18;;;;;;;20.48;14.25;;;;;;;;;;6319008;28;20052;-68
2022/09/07 13:53:33;;;;;;;18.90;14.13;;;;;;;;;;6314731;28;20363;-68
2022/09/07 13:56:38;;;;;;;19.45;17.38;;;;;;;;;;6312997;28;20044;-70
2022/09/07 13:59:41;;;;;;;16.02;13.30;;;;;;;;;;6337696;28;20264;-68
2022/09/07 14:02:43;;;;;;;20.45;16.67;;;;;;;;;;6342202;28;20047;-70
2022/09/07 14:05:45;;;;;;;19.30;14.90;;;;;;;;;;6342234;28;20100;-69
2022/09/07 14:08:50;;;;;;;14.48;12.65;;;;;;;;;;6339168;28;20048;-69
2022/09/07 14:11:53;;;;;;;16.48;14.77;;;;;;;;;;6342685;28;20052;-68
2022/09/07 14:15:08;;;;;;;17.23;12.60;;;;;;;;;;6339284;28;20059;-68
2022/09/07 14:18:12;;;;;;;12.95;11.50;;;;;;;;;;6344371;28;20100;-69
2022/09/07 14:21:17;;;;;;;17.98;12.32;;;;;;;;;;6347578;28;20317;-69
2022/09/07 14:24:28;;;;;;;13.15;10.40;;;;;;;;;;6341502;28;20369;-69
2022/09/07 14:27:33;;;;;;;15.50;10.10;;;;;;;;;;6340898;28;20047;-69
2022/09/07 14:30:36;;;;;;;17.75;11.48;;;;;;;;;;6341184;28;20059;-68
2022/09/07 14:33:37;;;;;;;16.05;11.40;;;;;;;;;;6336612;28;20051;-69
2022/09/07 14:36:40;;;;;;;33.63;29.05;;;;;;;;;;6337792;28;20105;-70
2022/09/07 14:39:45;;;;;;;17.67;12.95;;;;;;;;;;6338278;28;20047;-67
2022/09/07 14:42:47;;;;;;;19.27;13.52;;;;;;;;;;6339180;28;20051;-69
2022/09/07 14:45:48;;;;;;;;;;;;;;;;;;6339056;28;20112;-68
2022/09/07 14:48:52;;;;;;;14.70;10.77;;;;;;;;;;6317915;28;19916;-69
2022/09/07 14:51:54;;;;;;;12.80;10.98;;;;;;;;;;6320318;28;20331;-70
2022/09/07 14:54:57;;;;;;;14.25;8.80;;;;;;;;;;6317940;28;20372;-68
2022/09/07 14:58:10;;;;;;;12.02;9.27;;;;;;;;;;6321855;28;20052;-69
2022/09/07 15:01:19;;;;;;;12.95;10.45;;;;;;;;;;6322440;28;20058;-68
2022/09/07 15:04:29;;;;;;;11.85;10.43;;;;;;;;;;6319391;28;20250;-70
2022/09/07 15:07:38;;;;;;;15.05;10.60;;;;;;;;;;6315693;28;20050;-67
2022/09/07 15:10:41;;;;;;;9.68;8.68;;;;;;;;;;6322682;28;20354;-67
2022/09/07 15:13:45;;;;;;;12.30;11.07;;;;;;;;;;6323400;28;20064;-68
2022/09/07 15:16:59;;;;;;;12.18;9.95;;;;;;;;;;6326305;28;20324;-69
2022/09/07 15:20:01;;;;;;;14.77;10.40;;;;;;;;;;6323179;28;20358;-68
2022/09/07 15:23:03;;;;;;;14.00;8.50;;;;;;;;;;6327588;28;20039;-69
2022/09/07 15:26:08;;;;;;;10.00;6.60;;;;;;;;;;6321746;28;20331;-69
2022/09/07 15:29:10;;;;;;;10.45;7.10;;;;;;;;;;6325783;28;20101;-68
2022/09/07 15:32:12;;;;;;;8.68;6.40;;;;;;;;;;6327571;28;20335;-69
2022/09/07 15:35:14;;;;;;;10.40;6.18;;;;;;;;;;6318298;28;20063;-68
2022/09/07 15:38:15;;;;;;;7.15;5.60;;;;;;;;;;6322072;28;20113;-68
2022/09/07 15:41:18;;;;;;;9.48;6.03;;;;;;;;;;6316707;28;20109;-70
2022/09/07 15:44:20;;;;;;;11.27;5.88;;;;;;;;;;6320631;28;20105;-68
2022/09/07 15:47:22;;;;;;;11.18;5.68;;;;;;;;;;6317945;28;20040;-68
2022/09/07 15:50:23;;;;;;;9.80;5.70;;;;;;;;;;6319585;28;20056;-68
2022/09/07 15:53:25;;;;;;;10.32;6.65;;;;;;;;;;6314490;28;20089;-68
2022/09/07 15:56:28;;;;;;;11.68;8.15;;;;;;;;;;6318771;28;20048;-70
2022/09/07 15:59:30;;;;;;;12.75;8.63;;;;;;;;;;6315752;28;20051;-69
2022/09/07 16:02:32;;;;;;;13.23;8.45;;;;;;;;;;6321170;28;20119;-68
2022/09/07 16:05:33;;;;;;;10.95;7.40;;;;;;;;;;6317397;28;20392;-69
2022/09/07 16:08:35;;;;;;;12.40;7.28;;;;;;;;;;6319354;28;20052;-68
2022/09/07 16:11:38;;;;;;;9.73;7.47;;;;;;;;;;6316242;28;20216;-68
2022/09/07 16:14:40;;;;;;;15.98;6.93;;;;;;;;;;6319275;28;20536;-68
2022/09/07 16:17:43;;;;;;;13.80;8.10;;;;;;;;;;6315259;28;20387;-68
2022/09/07 16:20:45;;;;;;;14.57;8.30;;;;;;;;;;6320489;28;20166;-69
2022/09/07 16:23:52;;;;;;;13.52;8.05;;;;;;;;;;6318107;28;20328;-70
2022/09/07 16:26:55;;;;;;;14.93;7.15;;;;;;;;;;6314133;28;20289;-69
2022/09/07 16:29:56;;;;;;;11.40;6.82;;;;;;;;;;6318195;28;20052;-68
2022/09/07 16:32:58;;;;;;;12.57;6.78;;;;;;;;;;6316969;28;20040;-69
2022/09/07 16:36:01;;;;;;;10.15;6.32;;;;;;;;;;6316176;28;20064;-69
2022/09/07 16:39:03;;;;;;;10.65;7.97;;;;;;;;;;6316955;28;20370;-69
2022/09/07 16:42:07;;;;;;;9.70;6.63;;;;;;;;;;6319595;28;20235;-68
2022/09/07 16:45:09;;;;;;;12.07;8.25;;;;;;;;;;6318325;28;20343;-68
2022/09/07 16:48:11;;;;;;;11.77;6.95;;;;;;;;;;6315959;28;20098;-68
2022/09/07 16:51:15;;;;;;;12.15;7.22;;;;;;;;;;6317454;28;20048;-67
2022/09/07 16:54:17;;;;;;;14.52;8.35;;;;;;;;;;6317444;28;20123;-67
2022/09/07 16:57:20;;;;;;;11.95;7.53;;;;;;;;;;6317792;28;20059;-67
2022/09/07 17:00:22;;;;;;;10.20;7.18;;;;;;;;;;6315339;28;20220;-68
2022/09/07 17:03:23;;;;;;;9.40;7.05;;;;;;;;;;6317873;28;20121;-70
2022/09/07 17:06:27;;;;;;;15.68;8.88;;;;;;;;;;6316551;28;20056;-69
2022/09/07 17:09:29;;;;;;;12.30;7.20;;;;;;;;;;6315847;28;20140;-67
2022/09/07 17:12:32;;;;;;;16.65;9.18;;;;;;;;;;6313313;28;20048;-68
2022/09/07 17:15:34;;;;;;;12.43;7.45;;;;;;;;;;6318916;28;20067;-67
2022/09/07 17:18:36;;;;;;;12.82;8.10;;;;;;;;;;6320028;28;20164;-67
2022/09/07 17:21:39;;;;;;;11.83;6.53;;;;;;;;;;6319113;28;20051;-67
2022/09/07 17:24:40;;;;;;;7.78;6.50;;;;;;;;;;6315819;28;20466;-67
2022/09/07 17:27:43;;;;;;;11.48;7.85;;;;;;;;;;6322418;28;20062;-67
2022/09/07 17:30:45;;;;;;;12.73;7.15;;;;;;;;;;6314545;28;20076;-67
2022/09/07 17:33:47;;;;;;;16.33;6.93;;;;;;;;;;6320716;28;20059;-66
2022/09/07 17:36:49;;;;;;;14.13;7.05;;;;;;;;;;6318841;28;20069;-67
2022/09/07 17:39:50;;;;;;;9.38;7.30;;;;;;;;;;6316666;28;20264;-67
2022/09/07 17:42:53;;;;;;;9.52;6.72;;;;;;;;;;6324650;28;20048;-68
2022/09/07 17:45:55;;;;;;;10.68;7.03;;;;;;;;;;6320875;28;20049;-68
2022/09/07 17:48:58;;;;;;;9.38;6.80;;;;;;;;;;6313562;28;20059;-68
2022/09/07 17:52:00;;;;;;;11.85;7.25;;;;;;;;;;6318598;28;20055;-68
2022/09/07 17:55:02;;;;;;;10.23;7.60;;;;;;;;;;6317695;28;20366;-68
2022/09/07 17:58:05;;;;;;;12.40;8.00;;;;;;;;;;6322218;28;20108;-68
2022/09/07 18:01:07;;;;;;;;;;;;;;;;;;6318236;28;20357;-67
2022/09/07 18:04:10;;;;;;;14.23;7.28;;;;;;;;;;6321618;28;19923;-69
2022/09/07 18:07:11;;;;;;;11.55;7.07;;;;;;;;;;6320011;28;20059;-69
2022/09/07 18:10:13;;;;;;;9.27;8.10;;;;;;;;;;6321422;28;20040;-68
2022/09/07 18:13:17;;;;;;;13.85;7.60;;;;;;;;;;6319174;28;20311;-68
2022/09/07 18:16:21;;;;;;;9.77;6.70;;;;;;;;;;6322978;28;20056;-68